Terminal Aerodrome Forecast
Issued by NWS Hastings, NE

Home | Current Version | Previous Version | Text Only | Print | Product List | Glossary On
Versions: 1 2 3 4 5 6 7 8 9 10 11 12 13 14 15 16 17 18 19 20 21 22 23 24 25 26 27 28 29 30 31
000
FTUS43 KGID 200521
TAFGRI
TAF
KGRI 200521Z 2006/2106 20010G15KT P6SM SCT150 WS006/22045KT
     FM201400 35012KT P6SM SCT150
     FM202300 33007KT P6SM FEW150=

USA.gov is the U.S. government's official web portal to all federal, state and local government web resources and services.